»·PEaware :: UAL431 KRNO-KSNA

UAL431 :: KRNO-KSNA

FLIGHT INFORMATION

Flight Status: Arrived
Operator:
United Airlines
More flights by this operator :: More flights under this callsign
Pilot: Anonymous 18910 (18910)
Aircraft: AIRBUS A319
(A319)
More flights by this aircraft type
Origin: KRNO Reno/Tahoe Intl
United States
Destination: KSNA John Wayne-Orange Co
United States
More flights between these airports :: More routes between these airports
Route: + / REBRG OHSEA2
File this flight plan on PilotEdge
Remarks:
Altitude:
(Current/Filed)
37,000ft
Speed:
(Current/Filed)
425kts
Departed: 10-Feb-20 09:41 PM
Arrived: 10-Feb-20 10:47 PM
Distance/Time
Traveled:
361nm/1:06
Distance/Time
To Go:
Arrived

Flight Plot

Page will automatically refresh every two minutes.

Flight plan parsing failed; only flown route is shown


Map Options




Map Legend


Flown Route
Filed Route
Departure Airport
Arrival Airport
Navaid (VOR, NDB)
Fix

Horizontal Profiles

Position Reports

Time Latitude Longitude Heading Altitude Ground
Speed
10-Feb-20 21:13 39.506572 -119.773780 0 4429ft 0kts
10-Feb-20 21:14 39.506572 -119.773780 0 4429ft 0kts
10-Feb-20 21:15 39.506572 -119.773780 0 4429ft 0kts
10-Feb-20 21:16 39.506572 -119.773780 0 4429ft 0kts
10-Feb-20 21:17 39.506572 -119.773780 0 4429ft 0kts
10-Feb-20 21:18 39.506572 -119.773780 0 4429ft 0kts
10-Feb-20 21:19 39.506572 -119.773780 0 4429ft 0kts
10-Feb-20 21:20 39.506572 -119.773780 0 4429ft 0kts
10-Feb-20 21:21 39.506572 -119.773780 0 4429ft 0kts
10-Feb-20 21:22 39.506572 -119.773780 0 4429ft 0kts
10-Feb-20 21:23 39.506572 -119.773780 0 4429ft 0kts
10-Feb-20 21:24 39.506572 -119.773780 0 4429ft 0kts
10-Feb-20 21:25 39.506572 -119.773780 0 4429ft 0kts
10-Feb-20 21:26 39.506572 -119.773780 0 4429ft 0kts
10-Feb-20 21:27 39.506482 -119.773781 0 4429ft 2kts
10-Feb-20 21:28 39.505901 -119.774127 91 4429ft 2kts
10-Feb-20 21:29 39.505903 -119.774257 91 4429ft 0kts
10-Feb-20 21:30 39.505903 -119.774256 91 4429ft 0kts
10-Feb-20 21:31 39.505903 -119.774255 91 4429ft 0kts
10-Feb-20 21:33 39.505903 -119.774253 91 4429ft 0kts
10-Feb-20 21:34 39.505903 -119.774252 91 4429ft 0kts
10-Feb-20 21:35 39.505895 -119.772906 89 4429ft 0kts
10-Feb-20 21:36 39.505897 -119.772091 89 4429ft 0kts
10-Feb-20 21:37 39.507067 -119.771481 0 4429ft 7kts
10-Feb-20 21:38 39.510805 -119.771487 2 4429ft 15kts
10-Feb-20 21:39 39.513517 -119.771490 359 4429ft 7kts
10-Feb-20 21:40 39.513807 -119.769754 103 4429ft 10kts
10-Feb-20 21:41 39.504900 -119.769261 180 4429ft 127kts
10-Feb-20 21:42 39.460826 -119.767762 181 6669ft 166kts
10-Feb-20 21:43 39.413677 -119.768816 178 8744ft 176kts
10-Feb-20 21:44 39.362620 -119.773029 174 10339ft 191kts
10-Feb-20 21:45 39.303121 -119.769203 175 11737ft 242kts
10-Feb-20 21:46 39.228666 -119.766161 176 13627ft 289kts
10-Feb-20 21:47 39.142420 -119.762837 177 15929ft 325kts
10-Feb-20 21:48 39.049754 -119.755952 175 18528ft 340kts
10-Feb-20 21:49 38.953005 -119.746556 174 20849ft 357kts
10-Feb-20 21:50 38.851563 -119.738595 174 22976ft 372kts
10-Feb-20 21:50 38.764136 -119.733351 174 24566ft 386kts
10-Feb-20 21:52 38.630652 -119.726605 174 25948ft 427kts
10-Feb-20 21:53 38.509707 -119.721571 174 27573ft 442kts
10-Feb-20 21:53 38.405809 -119.718222 174 28811ft 453kts
10-Feb-20 21:55 38.256490 -119.704964 169 30006ft 478kts
10-Feb-20 21:55 38.142689 -119.694360 171 30464ft 505kts
10-Feb-20 21:56 37.998748 -119.680514 171 30880ft 533kts
10-Feb-20 21:58 37.826587 -119.664093 171 32513ft 530kts
10-Feb-20 21:58 37.703692 -119.656232 175 33630ft 531kts
10-Feb-20 21:59 37.556369 -119.653643 175 34873ft 528kts
10-Feb-20 22:01 37.385567 -119.649121 176 36250ft 524kts
10-Feb-20 22:01 37.264163 -119.646036 176 37054ft 522kts
10-Feb-20 22:02 37.118916 -119.642377 177 37166ft 521kts
10-Feb-20 22:03 36.974448 -119.638853 176 37145ft 521kts
10-Feb-20 22:04 36.829671 -119.635334 177 37145ft 517kts
10-Feb-20 22:05 36.685995 -119.631722 177 37083ft 517kts
10-Feb-20 22:06 36.542315 -119.628194 176 37113ft 517kts
10-Feb-20 22:07 36.398239 -119.624696 177 37108ft 520kts
10-Feb-20 22:08 36.253007 -119.621152 176 37104ft 522kts
10-Feb-20 22:09 36.107671 -119.617627 177 37181ft 521kts
10-Feb-20 22:10 35.962998 -119.617799 186 37163ft 522kts
10-Feb-20 22:11 35.820114 -119.647885 189 37096ft 520kts
10-Feb-20 22:12 35.676712 -119.673838 178 37052ft 520kts
10-Feb-20 22:13 35.544654 -119.618646 148 37108ft 504kts
10-Feb-20 22:14 35.415938 -119.546928 151 37140ft 508kts
10-Feb-20 22:15 35.287596 -119.476294 150 37150ft 506kts
10-Feb-20 22:16 35.159626 -119.406244 150 37157ft 501kts
10-Feb-20 22:17 35.033097 -119.337137 150 37066ft 497kts
10-Feb-20 22:18 34.907289 -119.268728 150 36637ft 493kts
10-Feb-20 22:19 34.781160 -119.200324 149 35453ft 497kts
10-Feb-20 22:20 34.655654 -119.125026 143 32604ft 506kts
10-Feb-20 22:21 34.530508 -119.045041 142 29573ft 508kts
10-Feb-20 22:22 34.408374 -118.965452 142 27430ft 478kts
10-Feb-20 22:23 34.297001 -118.891051 142 25803ft 447kts
10-Feb-20 22:24 34.186128 -118.827828 154 25034ft 446kts
10-Feb-20 22:25 34.068643 -118.783102 154 24152ft 431kts
10-Feb-20 22:26 33.955256 -118.738601 156 20836ft 414kts
10-Feb-20 22:27 33.846953 -118.696868 156 17518ft 399kts
10-Feb-20 22:28 33.744141 -118.657351 157 14576ft 377kts
10-Feb-20 22:29 33.650024 -118.624249 157 12861ft 331kts
10-Feb-20 22:30 33.576449 -118.573432 114 10695ft 285kts
10-Feb-20 22:31 33.536592 -118.493233 118 9405ft 283kts
10-Feb-20 22:32 33.519627 -118.405664 86 8080ft 273kts
10-Feb-20 22:33 33.522366 -118.315760 69 6808ft 266kts
10-Feb-20 22:34 33.549408 -118.235159 68 5749ft 257kts
10-Feb-20 22:35 33.577414 -118.158999 54 4997ft 244kts
10-Feb-20 22:36 33.614864 -118.092880 55 5012ft 240kts
10-Feb-20 22:37 33.652119 -118.026102 55 5011ft 241kts
10-Feb-20 22:38 33.688302 -117.960964 54 4203ft 233kts
10-Feb-20 22:39 33.740021 -117.918869 25 3024ft 223kts
10-Feb-20 22:40 33.794191 -117.883940 26 2455ft 221kts
10-Feb-20 22:41 33.804689 -117.829003 119 2550ft 189kts
10-Feb-20 22:42 33.768021 -117.807053 212 2086ft 150kts
10-Feb-20 22:43 33.736356 -117.830350 212 1230ft 129kts
10-Feb-20 22:44 33.704824 -117.850472 209 585ft 127kts
10-Feb-20 22:45 33.674315 -117.869735 208 70ft 84kts
10-Feb-20 22:46 33.669409 -117.871676 268 70ft 4kts
10-Feb-20 22:47 33.671121 -117.868888 38 70ft 19kts
10-Feb-20 22:48 33.674814 -117.866040 28 70ft 18kts
10-Feb-20 22:49 33.676083 -117.864422 118 70ft 2kts

Navigation Log

Ident Type
Flight plan parsing failed, navigation log unavailable